sensor_id;sensor_type;location;lat;lon;timestamp;temperature;humidity
12329;DHT22;6230;52.390;10.256;2023-03-11T00:01:13;4.40;80.20
12329;DHT22;6230;52.390;10.256;2023-03-11T00:03:38;4.40;80.20
12329;DHT22;6230;52.390;10.256;2023-03-11T00:06:04;4.40;80.20
12329;DHT22;6230;52.390;10.256;2023-03-11T00:08:30;4.40;80.20
12329;DHT22;6230;52.390;10.256;2023-03-11T00:10:58;4.40;80.20
12329;DHT22;6230;52.390;10.256;2023-03-11T00:13:25;4.40;80.30
12329;DHT22;6230;52.390;10.256;2023-03-11T00:15:53;4.30;80.10
12329;DHT22;6230;52.390;10.256;2023-03-11T00:18:24;4.30;80.20
12329;DHT22;6230;52.390;10.256;2023-03-11T00:20:51;4.30;80.20
12329;DHT22;6230;52.390;10.256;2023-03-11T00:23:17;4.30;80.20
12329;DHT22;6230;52.390;10.256;2023-03-11T00:25:44;4.30;80.10
12329;DHT22;6230;52.390;10.256;2023-03-11T00:28:11;4.40;80.20
12329;DHT22;6230;52.390;10.256;2023-03-11T00:30:37;4.40;80.20
12329;DHT22;6230;52.390;10.256;2023-03-11T00:33:04;4.40;80.10
12329;DHT22;6230;52.390;10.256;2023-03-11T00:35:31;4.40;80.10
12329;DHT22;6230;52.390;10.256;2023-03-11T00:37:59;4.40;80.10
12329;DHT22;6230;52.390;10.256;2023-03-11T00:40:28;4.40;80.10
12329;DHT22;6230;52.390;10.256;2023-03-11T00:42:54;4.40;80.00
12329;DHT22;6230;52.390;10.256;2023-03-11T00:45:19;4.40;80.10
12329;DHT22;6230;52.390;10.256;2023-03-11T00:47:45;4.40;80.10
12329;DHT22;6230;52.390;10.256;2023-03-11T00:50:16;4.30;80.00
12329;DHT22;6230;52.390;10.256;2023-03-11T00:52:43;4.30;80.00
12329;DHT22;6230;52.390;10.256;2023-03-11T00:55:09;4.30;80.10
12329;DHT22;6230;52.390;10.256;2023-03-11T00:57:37;4.30;80.10
12329;DHT22;6230;52.390;10.256;2023-03-11T01:00:05;4.30;80.10
12329;DHT22;6230;52.390;10.256;2023-03-11T01:02:36;4.30;80.10
12329;DHT22;6230;52.390;10.256;2023-03-11T01:05:02;4.30;80.10
12329;DHT22;6230;52.390;10.256;2023-03-11T01:07:27;4.30;80.10
12329;DHT22;6230;52.390;10.256;2023-03-11T01:09:53;4.30;80.00
12329;DHT22;6230;52.390;10.256;2023-03-11T01:12:18;4.30;80.10
12329;DHT22;6230;52.390;10.256;2023-03-11T01:14:44;4.30;80.00
12329;DHT22;6230;52.390;10.256;2023-03-11T01:17:09;4.30;79.90
12329;DHT22;6230;52.390;10.256;2023-03-11T01:19:35;4.30;79.90
12329;DHT22;6230;52.390;10.256;2023-03-11T01:22:00;4.30;79.90
12329;DHT22;6230;52.390;10.256;2023-03-11T01:24:26;4.30;79.90
12329;DHT22;6230;52.390;10.256;2023-03-11T01:26:51;4.30;79.90
12329;DHT22;6230;52.390;10.256;2023-03-11T01:29:17;4.30;79.90
12329;DHT22;6230;52.390;10.256;2023-03-11T01:31:42;4.30;79.90
12329;DHT22;6230;52.390;10.256;2023-03-11T01:34:08;4.30;79.90
12329;DHT22;6230;52.390;10.256;2023-03-11T01:36:34;4.40;80.70
12329;DHT22;6230;52.390;10.256;2023-03-11T01:38:59;4.30;79.80
12329;DHT22;6230;52.390;10.256;2023-03-11T01:41:25;4.30;79.80
12329;DHT22;6230;52.390;10.256;2023-03-11T01:43:53;4.30;79.80
12329;DHT22;6230;52.390;10.256;2023-03-11T01:46:20;4.30;79.90
12329;DHT22;6230;52.390;10.256;2023-03-11T01:48:48;4.30;79.80
12329;DHT22;6230;52.390;10.256;2023-03-11T01:51:18;4.40;79.90
12329;DHT22;6230;52.390;10.256;2023-03-11T01:53:44;4.40;79.80
12329;DHT22;6230;52.390;10.256;2023-03-11T01:56:10;4.30;79.70
12329;DHT22;6230;52.390;10.256;2023-03-11T01:58:38;4.30;79.80
12329;DHT22;6230;52.390;10.256;2023-03-11T02:01:06;4.30;79.80
12329;DHT22;6230;52.390;10.256;2023-03-11T02:03:35;4.30;79.80
12329;DHT22;6230;52.390;10.256;2023-03-11T02:06:04;4.30;79.70
12329;DHT22;6230;52.390;10.256;2023-03-11T02:08:30;4.30;79.70
12329;DHT22;6230;52.390;10.256;2023-03-11T02:10:59;4.30;79.70
12329;DHT22;6230;52.390;10.256;2023-03-11T02:13:25;4.30;79.60
12329;DHT22;6230;52.390;10.256;2023-03-11T02:15:51;4.30;79.60
12329;DHT22;6230;52.390;10.256;2023-03-11T02:18:17;4.30;79.70
12329;DHT22;6230;52.390;10.256;2023-03-11T02:21:02;4.30;79.60
12329;DHT22;6230;52.390;10.256;2023-03-11T02:23:40;4.30;79.70
12329;DHT22;6230;52.390;10.256;2023-03-11T02:29:15;4.30;79.60
12329;DHT22;6230;52.390;10.256;2023-03-11T02:31:42;4.30;79.50
12329;DHT22;6230;52.390;10.256;2023-03-11T02:34:13;4.30;79.50
12329;DHT22;6230;52.390;10.256;2023-03-11T02:36:41;4.30;79.60
12329;DHT22;6230;52.390;10.256;2023-03-11T02:39:08;4.30;79.60
12329;DHT22;6230;52.390;10.256;2023-03-11T02:41:36;4.30;79.60
12329;DHT22;6230;52.390;10.256;2023-03-11T02:44:05;4.30;79.50
12329;DHT22;6230;52.390;10.256;2023-03-11T02:46:33;4.30;79.50
12329;DHT22;6230;52.390;10.256;2023-03-11T02:48:59;4.30;79.50
12329;DHT22;6230;52.390;10.256;2023-03-11T02:51:24;4.30;79.50
12329;DHT22;6230;52.390;10.256;2023-03-11T02:53:53;4.30;79.50
12329;DHT22;6230;52.390;10.256;2023-03-11T02:56:19;4.30;79.40
12329;DHT22;6230;52.390;10.256;2023-03-11T02:58:45;4.20;79.40
12329;DHT22;6230;52.390;10.256;2023-03-11T03:01:10;4.20;79.40
12329;DHT22;6230;52.390;10.256;2023-03-11T03:03:36;4.20;79.40
12329;DHT22;6230;52.390;10.256;2023-03-11T03:06:01;4.20;79.30
12329;DHT22;6230;52.390;10.256;2023-03-11T03:08:27;4.20;79.30
12329;DHT22;6230;52.390;10.256;2023-03-11T03:10:52;4.20;79.30
12329;DHT22;6230;52.390;10.256;2023-03-11T03:13:18;4.20;79.30
12329;DHT22;6230;52.390;10.256;2023-03-11T03:15:44;4.20;79.30
12329;DHT22;6230;52.390;10.256;2023-03-11T03:18:09;4.20;79.20
12329;DHT22;6230;52.390;10.256;2023-03-11T03:20:35;4.20;79.20
12329;DHT22;6230;52.390;10.256;2023-03-11T03:23:01;4.20;79.30
12329;DHT22;6230;52.390;10.256;2023-03-11T03:25:26;4.20;79.20
12329;DHT22;6230;52.390;10.256;2023-03-11T03:27:52;4.20;79.20
12329;DHT22;6230;52.390;10.256;2023-03-11T03:30:17;4.20;79.10
12329;DHT22;6230;52.390;10.256;2023-03-11T03:32:43;4.20;79.10
12329;DHT22;6230;52.390;10.256;2023-03-11T03:35:09;4.20;79.10
12329;DHT22;6230;52.390;10.256;2023-03-11T03:37:36;4.20;79.00
12329;DHT22;6230;52.390;10.256;2023-03-11T03:40:03;4.20;79.00
12329;DHT22;6230;52.390;10.256;2023-03-11T03:42:35;4.20;78.90
12329;DHT22;6230;52.390;10.256;2023-03-11T03:45:02;4.20;78.90
12329;DHT22;6230;52.390;10.256;2023-03-11T03:47:28;4.20;78.90
12329;DHT22;6230;52.390;10.256;2023-03-11T03:49:54;4.20;78.90
12329;DHT22;6230;52.390;10.256;2023-03-11T03:52:19;4.20;78.80
12329;DHT22;6230;52.390;10.256;2023-03-11T03:54:45;4.20;78.90
12329;DHT22;6230;52.390;10.256;2023-03-11T03:57:10;4.20;78.90
12329;DHT22;6230;52.390;10.256;2023-03-11T03:59:36;4.10;78.90
12329;DHT22;6230;52.390;10.256;2023-03-11T04:02:02;4.10;78.90
12329;DHT22;6230;52.390;10.256;2023-03-11T04:04:27;4.20;79.00
12329;DHT22;6230;52.390;10.256;2023-03-11T04:06:53;4.10;78.90
12329;DHT22;6230;52.390;10.256;2023-03-11T04:09:19;4.10;78.90
12329;DHT22;6230;52.390;10.256;2023-03-11T04:11:44;4.20;78.90
12329;DHT22;6230;52.390;10.256;2023-03-11T04:14:10;4.20;78.90
12329;DHT22;6230;52.390;10.256;2023-03-11T04:16:35;4.20;78.80
12329;DHT22;6230;52.390;10.256;2023-03-11T04:19:01;4.20;78.70
12329;DHT22;6230;52.390;10.256;2023-03-11T04:21:26;4.20;78.70
12329;DHT22;6230;52.390;10.256;2023-03-11T04:23:52;4.20;78.70
12329;DHT22;6230;52.390;10.256;2023-03-11T04:26:17;4.20;78.60
12329;DHT22;6230;52.390;10.256;2023-03-11T04:28:43;4.20;78.60
12329;DHT22;6230;52.390;10.256;2023-03-11T04:31:08;4.20;78.60
12329;DHT22;6230;52.390;10.256;2023-03-11T04:33:34;4.20;78.60
12329;DHT22;6230;52.390;10.256;2023-03-11T04:36:04;4.20;78.60
12329;DHT22;6230;52.390;10.256;2023-03-11T04:38:30;4.20;78.60
12329;DHT22;6230;52.390;10.256;2023-03-11T04:41:02;4.10;78.60
12329;DHT22;6230;52.390;10.256;2023-03-11T04:43:28;4.10;78.60
12329;DHT22;6230;52.390;10.256;2023-03-11T04:45:54;4.10;78.60
12329;DHT22;6230;52.390;10.256;2023-03-11T04:48:20;4.10;78.60
12329;DHT22;6230;52.390;10.256;2023-03-11T04:50:46;4.10;78.70
12329;DHT22;6230;52.390;10.256;2023-03-11T04:53:11;4.10;78.60
12329;DHT22;6230;52.390;10.256;2023-03-11T04:55:37;4.10;78.70
12329;DHT22;6230;52.390;10.256;2023-03-11T04:58:03;4.10;78.60
12329;DHT22;6230;52.390;10.256;2023-03-11T05:00:29;4.00;78.50
12329;DHT22;6230;52.390;10.256;2023-03-11T05:02:55;4.00;78.50
12329;DHT22;6230;52.390;10.256;2023-03-11T05:05:20;4.00;78.40
12329;DHT22;6230;52.390;10.256;2023-03-11T05:07:46;4.00;78.40
12329;DHT22;6230;52.390;10.256;2023-03-11T05:10:13;4.00;78.30
12329;DHT22;6230;52.390;10.256;2023-03-11T05:12:38;4.00;78.30
12329;DHT22;6230;52.390;10.256;2023-03-11T05:15:04;4.00;78.30
12329;DHT22;6230;52.390;10.256;2023-03-11T05:17:30;4.00;78.20
12329;DHT22;6230;52.390;10.256;2023-03-11T05:19:56;4.00;78.20
12329;DHT22;6230;52.390;10.256;2023-03-11T05:22:22;4.00;78.20
12329;DHT22;6230;52.390;10.256;2023-03-11T05:24:48;4.00;78.30
12329;DHT22;6230;52.390;10.256;2023-03-11T05:27:15;4.00;78.30
12329;DHT22;6230;52.390;10.256;2023-03-11T05:29:44;4.00;78.30
12329;DHT22;6230;52.390;10.256;2023-03-11T05:32:11;4.00;78.20
12329;DHT22;6230;52.390;10.256;2023-03-11T05:34:37;4.00;78.30
12329;DHT22;6230;52.390;10.256;2023-03-11T05:37:02;4.00;78.30
12329;DHT22;6230;52.390;10.256;2023-03-11T05:39:28;4.00;78.30
12329;DHT22;6230;52.390;10.256;2023-03-11T05:41:54;4.00;78.40
12329;DHT22;6230;52.390;10.256;2023-03-11T05:44:21;4.00;78.40
12329;DHT22;6230;52.390;10.256;2023-03-11T05:46:46;4.00;78.40
12329;DHT22;6230;52.390;10.256;2023-03-11T05:49:12;4.00;78.40
12329;DHT22;6230;52.390;10.256;2023-03-11T05:51:38;4.00;78.40
12329;DHT22;6230;52.390;10.256;2023-03-11T05:54:03;4.00;79.20
12329;DHT22;6230;52.390;10.256;2023-03-11T05:56:29;4.00;78.30
12329;DHT22;6230;52.390;10.256;2023-03-11T05:58:56;4.00;78.30
12329;DHT22;6230;52.390;10.256;2023-03-11T06:01:22;4.00;78.30
12329;DHT22;6230;52.390;10.256;2023-03-11T06:03:48;4.00;78.30
12329;DHT22;6230;52.390;10.256;2023-03-11T06:06:13;4.00;78.30
12329;DHT22;6230;52.390;10.256;2023-03-11T06:08:39;4.10;78.30
12329;DHT22;6230;52.390;10.256;2023-03-11T06:11:10;4.10;78.30
12329;DHT22;6230;52.390;10.256;2023-03-11T06:13:36;4.10;78.30
12329;DHT22;6230;52.390;10.256;2023-03-11T06:16:03;4.10;78.30
12329;DHT22;6230;52.390;10.256;2023-03-11T06:18:28;4.10;78.30
12329;DHT22;6230;52.390;10.256;2023-03-11T06:20:57;4.10;78.30
12329;DHT22;6230;52.390;10.256;2023-03-11T06:23:23;4.10;78.40
12329;DHT22;6230;52.390;10.256;2023-03-11T06:26:00;4.10;78.40
12329;DHT22;6230;52.390;10.256;2023-03-11T06:28:27;4.10;78.40
12329;DHT22;6230;52.390;10.256;2023-03-11T06:30:53;4.10;78.30
12329;DHT22;6230;52.390;10.256;2023-03-11T06:33:23;4.10;78.30
12329;DHT22;6230;52.390;10.256;2023-03-11T06:35:59;4.10;79.10
12329;DHT22;6230;52.390;10.256;2023-03-11T06:38:26;4.10;78.30
12329;DHT22;6230;52.390;10.256;2023-03-11T06:40:51;4.10;78.30
12329;DHT22;6230;52.390;10.256;2023-03-11T06:43:17;4.20;78.30
12329;DHT22;6230;52.390;10.256;2023-03-11T06:45:43;4.20;78.30
12329;DHT22;6230;52.390;10.256;2023-03-11T06:48:09;4.20;78.20
12329;DHT22;6230;52.390;10.256;2023-03-11T06:50:34;4.20;78.30
12329;DHT22;6230;52.390;10.256;2023-03-11T06:53:00;4.20;78.30
12329;DHT22;6230;52.390;10.256;2023-03-11T06:55:27;4.20;78.30
12329;DHT22;6230;52.390;10.256;2023-03-11T06:57:52;4.20;78.20
12329;DHT22;6230;52.390;10.256;2023-03-11T07:00:18;4.20;78.20
12329;DHT22;6230;52.390;10.256;2023-03-11T07:02:44;4.20;78.20
12329;DHT22;6230;52.390;10.256;2023-03-11T07:05:09;4.20;78.20
12329;DHT22;6230;52.390;10.256;2023-03-11T07:07:35;4.30;78.30
12329;DHT22;6230;52.390;10.256;2023-03-11T07:10:00;4.30;78.20
12329;DHT22;6230;52.390;10.256;2023-03-11T07:12:26;4.30;78.20
12329;DHT22;6230;52.390;10.256;2023-03-11T07:14:58;4.30;78.10
12329;DHT22;6230;52.390;10.256;2023-03-11T07:17:25;4.30;78.10
12329;DHT22;6230;52.390;10.256;2023-03-11T07:19:51;4.40;78.20
12329;DHT22;6230;52.390;10.256;2023-03-11T07:22:17;4.40;78.20
12329;DHT22;6230;52.390;10.256;2023-03-11T07:24:47;4.40;78.20
12329;DHT22;6230;52.390;10.256;2023-03-11T07:27:13;4.40;78.10
12329;DHT22;6230;52.390;10.256;2023-03-11T07:29:39;4.50;78.20
12329;DHT22;6230;52.390;10.256;2023-03-11T07:32:06;4.50;78.20
12329;DHT22;6230;52.390;10.256;2023-03-11T07:34:32;4.50;78.20
12329;DHT22;6230;52.390;10.256;2023-03-11T07:36:57;4.50;78.20
12329;DHT22;6230;52.390;10.256;2023-03-11T07:39:23;4.50;78.20
12329;DHT22;6230;52.390;10.256;2023-03-11T07:41:48;4.50;78.20
12329;DHT22;6230;52.390;10.256;2023-03-11T07:44:15;4.50;78.20
12329;DHT22;6230;52.390;10.256;2023-03-11T07:46:41;4.50;78.20
12329;DHT22;6230;52.390;10.256;2023-03-11T07:49:07;4.60;78.30
12329;DHT22;6230;52.390;10.256;2023-03-11T07:51:34;4.60;78.40
12329;DHT22;6230;52.390;10.256;2023-03-11T07:54:01;4.60;78.30
12329;DHT22;6230;52.390;10.256;2023-03-11T07:56:29;4.60;78.30
12329;DHT22;6230;52.390;10.256;2023-03-11T07:58:57;4.70;78.40
12329;DHT22;6230;52.390;10.256;2023-03-11T08:01:24;4.70;78.30
12329;DHT22;6230;52.390;10.256;2023-03-11T08:03:52;4.70;78.20
12329;DHT22;6230;52.390;10.256;2023-03-11T08:06:28;4.70;78.20
12329;DHT22;6230;52.390;10.256;2023-03-11T08:08:56;4.70;78.10
12329;DHT22;6230;52.390;10.256;2023-03-11T08:11:22;4.70;78.20
12329;DHT22;6230;52.390;10.256;2023-03-11T08:13:48;4.70;78.20
12329;DHT22;6230;52.390;10.256;2023-03-11T08:16:16;4.80;78.40
12329;DHT22;6230;52.390;10.256;2023-03-11T08:18:43;4.80;78.20
12329;DHT22;6230;52.390;10.256;2023-03-11T08:21:15;4.80;78.20
12329;DHT22;6230;52.390;10.256;2023-03-11T08:23:42;4.80;78.20
12329;DHT22;6230;52.390;10.256;2023-03-11T08:26:11;4.90;78.30
12329;DHT22;6230;52.390;10.256;2023-03-11T08:28:37;4.90;78.10
12329;DHT22;6230;52.390;10.256;2023-03-11T08:31:17;4.90;78.20
12329;DHT22;6230;52.390;10.256;2023-03-11T08:33:45;4.90;78.20
12329;DHT22;6230;52.390;10.256;2023-03-11T08:36:11;5.00;78.20
12329;DHT22;6230;52.390;10.256;2023-03-11T08:38:37;5.00;78.10
12329;DHT22;6230;52.390;10.256;2023-03-11T08:41:03;5.00;78.10
12329;DHT22;6230;52.390;10.256;2023-03-11T08:43:29;5.10;78.30
12329;DHT22;6230;52.390;10.256;2023-03-11T08:45:54;5.10;78.20
12329;DHT22;6230;52.390;10.256;2023-03-11T08:48:20;5.10;78.10
12329;DHT22;6230;52.390;10.256;2023-03-11T08:50:45;5.10;78.10
12329;DHT22;6230;52.390;10.256;2023-03-11T08:53:11;5.10;78.00
12329;DHT22;6230;52.390;10.256;2023-03-11T08:55:37;5.20;78.10
12329;DHT22;6230;52.390;10.256;2023-03-11T08:58:02;5.20;78.20
12329;DHT22;6230;52.390;10.256;2023-03-11T09:00:28;5.20;78.30
12329;DHT22;6230;52.390;10.256;2023-03-11T09:02:53;5.40;78.40
12329;DHT22;6230;52.390;10.256;2023-03-11T09:05:19;5.50;78.30
12329;DHT22;6230;52.390;10.256;2023-03-11T09:07:44;5.50;77.90
12329;DHT22;6230;52.390;10.256;2023-03-11T09:10:12;5.50;77.90
12329;DHT22;6230;52.390;10.256;2023-03-11T09:12:38;5.60;77.90
12329;DHT22;6230;52.390;10.256;2023-03-11T09:15:04;5.60;77.70
12329;DHT22;6230;52.390;10.256;2023-03-11T09:17:30;5.70;77.60
12329;DHT22;6230;52.390;10.256;2023-03-11T09:19:55;5.70;77.50
12329;DHT22;6230;52.390;10.256;2023-03-11T09:22:21;5.70;77.40
12329;DHT22;6230;52.390;10.256;2023-03-11T09:24:46;5.80;77.50
12329;DHT22;6230;52.390;10.256;2023-03-11T09:27:12;5.80;77.50
12329;DHT22;6230;52.390;10.256;2023-03-11T09:29:39;5.90;77.50
12329;DHT22;6230;52.390;10.256;2023-03-11T09:32:05;5.90;77.50
12329;DHT22;6230;52.390;10.256;2023-03-11T09:34:31;6.00;77.40
12329;DHT22;6230;52.390;10.256;2023-03-11T09:36:56;6.00;77.20
12329;DHT22;6230;52.390;10.256;2023-03-11T09:39:22;6.10;77.40
12329;DHT22;6230;52.390;10.256;2023-03-11T09:41:52;6.20;77.60
12329;DHT22;6230;52.390;10.256;2023-03-11T09:44:42;6.30;77.40
12329;DHT22;6230;52.390;10.256;2023-03-11T09:47:23;6.50;77.50
12329;DHT22;6230;52.390;10.256;2023-03-11T09:50:19;6.70;77.50
12329;DHT22;6230;52.390;10.256;2023-03-11T09:55:30;6.90;76.70
12329;DHT22;6230;52.390;10.256;2023-03-11T09:57:59;6.90;76.40
12329;DHT22;6230;52.390;10.256;2023-03-11T10:00:26;6.90;76.40
12329;DHT22;6230;52.390;10.256;2023-03-11T10:02:52;7.00;76.90
12329;DHT22;6230;52.390;10.256;2023-03-11T10:05:28;7.10;76.60
12329;DHT22;6230;52.390;10.256;2023-03-11T10:08:00;7.20;76.30
12329;DHT22;6230;52.390;10.256;2023-03-11T10:10:31;7.40;76.50
12329;DHT22;6230;52.390;10.256;2023-03-11T10:13:26;7.50;76.20
12329;DHT22;6230;52.390;10.256;2023-03-11T10:16:14;7.60;76.20
12329;DHT22;6230;52.390;10.256;2023-03-11T10:21:45;8.00;75.70
12329;DHT22;6230;52.390;10.256;2023-03-11T10:26:48;8.20;75.30
12329;DHT22;6230;52.390;10.256;2023-03-11T10:29:22;8.20;75.00
12329;DHT22;6230;52.390;10.256;2023-03-11T10:32:14;8.20;74.90
12329;DHT22;6230;52.390;10.256;2023-03-11T10:37:36;8.00;74.50
12329;DHT22;6230;52.390;10.256;2023-03-11T10:40:28;7.90;74.70
12329;DHT22;6230;52.390;10.256;2023-03-11T10:42:57;7.90;74.90
12329;DHT22;6230;52.390;10.256;2023-03-11T10:45:24;7.90;75.40
12329;DHT22;6230;52.390;10.256;2023-03-11T10:47:50;8.00;74.80
12329;DHT22;6230;52.390;10.256;2023-03-11T10:50:17;8.10;75.10
12329;DHT22;6230;52.390;10.256;2023-03-11T10:53:07;8.20;74.60
12329;DHT22;6230;52.390;10.256;2023-03-11T10:55:33;8.40;74.50
12329;DHT22;6230;52.390;10.256;2023-03-11T10:58:10;8.40;74.00
12329;DHT22;6230;52.390;10.256;2023-03-11T11:00:36;8.50;73.60
12329;DHT22;6230;52.390;10.256;2023-03-11T11:03:02;8.50;73.80
12329;DHT22;6230;52.390;10.256;2023-03-11T11:05:33;8.60;73.90
12329;DHT22;6230;52.390;10.256;2023-03-11T11:08:11;8.90;73.70
12329;DHT22;6230;52.390;10.256;2023-03-11T11:10:51;9.10;73.50
12329;DHT22;6230;52.390;10.256;2023-03-11T11:13:20;9.40;73.40
12329;DHT22;6230;52.390;10.256;2023-03-11T11:16:00;9.60;73.30
12329;DHT22;6230;52.390;10.256;2023-03-11T11:18:42;10.00;73.00
12329;DHT22;6230;52.390;10.256;2023-03-11T11:21:14;10.30;72.30
12329;DHT22;6230;52.390;10.256;2023-03-11T11:24:28;10.50;72.00
12329;DHT22;6230;52.390;10.256;2023-03-11T11:26:29;10.80;71.60
12329;DHT22;6230;52.390;10.256;2023-03-11T11:31:33;10.70;69.70
12329;DHT22;6230;52.390;10.256;2023-03-11T11:33:59;10.40;69.60
12329;DHT22;6230;52.390;10.256;2023-03-11T11:36:29;10.10;69.80
12329;DHT22;6230;52.390;10.256;2023-03-11T11:38:55;9.80;70.20
12329;DHT22;6230;52.390;10.256;2023-03-11T11:41:23;9.80;70.60
12329;DHT22;6230;52.390;10.256;2023-03-11T11:43:53;9.90;71.00
12329;DHT22;6230;52.390;10.256;2023-03-11T11:51:30;10.30;69.70
12329;DHT22;6230;52.390;10.256;2023-03-11T11:54:13;10.30;69.30
12329;DHT22;6230;52.390;10.256;2023-03-11T11:56:42;10.40;69.60
12329;DHT22;6230;52.390;10.256;2023-03-11T11:59:16;10.50;69.60
12329;DHT22;6230;52.390;10.256;2023-03-11T12:16:30;11.10;67.00
12329;DHT22;6230;52.390;10.256;2023-03-11T12:22:14;11.00;67.20
12329;DHT22;6230;52.390;10.256;2023-03-11T12:25:04;11.10;66.70
12329;DHT22;6230;52.390;10.256;2023-03-11T12:30:15;11.70;66.60
12329;DHT22;6230;52.390;10.256;2023-03-11T12:32:49;11.70;65.30
12329;DHT22;6230;52.390;10.256;2023-03-11T12:37:45;11.80;65.10
12329;DHT22;6230;52.390;10.256;2023-03-11T12:45:59;12.20;63.70
12329;DHT22;6230;52.390;10.256;2023-03-11T12:50:54;12.40;63.30
12329;DHT22;6230;52.390;10.256;2023-03-11T12:53:44;12.60;63.30
12329;DHT22;6230;52.390;10.256;2023-03-11T12:56:16;12.90;62.00
12329;DHT22;6230;52.390;10.256;2023-03-11T13:04:53;13.10;62.30
12329;DHT22;6230;52.390;10.256;2023-03-11T13:10:16;13.20;61.10
12329;DHT22;6230;52.390;10.256;2023-03-11T13:12:52;13.30;60.50
12329;DHT22;6230;52.390;10.256;2023-03-11T13:18:13;13.50;60.50
12329;DHT22;6230;52.390;10.256;2023-03-11T13:23:20;13.40;59.40
12329;DHT22;6230;52.390;10.256;2023-03-11T13:28:35;13.20;59.20
12329;DHT22;6230;52.390;10.256;2023-03-11T13:33:59;13.00;58.90
12329;DHT22;6230;52.390;10.256;2023-03-11T13:39:17;13.10;58.90
12329;DHT22;6230;52.390;10.256;2023-03-11T13:41:44;13.20;58.90
12329;DHT22;6230;52.390;10.256;2023-03-11T13:47:35;13.40;57.50
12329;DHT22;6230;52.390;10.256;2023-03-11T13:49:50;13.30;57.60
12329;DHT22;6230;52.390;10.256;2023-03-11T13:52:25;13.40;57.70
12329;DHT22;6230;52.390;10.256;2023-03-11T13:55:02;13.50;57.50
12329;DHT22;6230;52.390;10.256;2023-03-11T13:57:34;13.50;56.90
12329;DHT22;6230;52.390;10.256;2023-03-11T14:00:27;13.40;56.90
12329;DHT22;6230;52.390;10.256;2023-03-11T14:03:04;13.20;56.10
12329;DHT22;6230;52.390;10.256;2023-03-11T14:05:36;13.20;56.40
12329;DHT22;6230;52.390;10.256;2023-03-11T14:10:36;13.20;56.40
12329;DHT22;6230;52.390;10.256;2023-03-11T14:13:13;13.30;56.60
12329;DHT22;6230;52.390;10.256;2023-03-11T14:15:53;13.40;56.10
12329;DHT22;6230;52.390;10.256;2023-03-11T14:18:26;13.50;56.10
12329;DHT22;6230;52.390;10.256;2023-03-11T14:20:52;13.60;56.00
12329;DHT22;6230;52.390;10.256;2023-03-11T14:23:19;13.70;55.70
12329;DHT22;6230;52.390;10.256;2023-03-11T14:25:45;13.80;55.20
12329;DHT22;6230;52.390;10.256;2023-03-11T14:28:19;13.70;55.30
12329;DHT22;6230;52.390;10.256;2023-03-11T14:30:56;13.70;55.10
12329;DHT22;6230;52.390;10.256;2023-03-11T14:33:22;13.70;54.90
12329;DHT22;6230;52.390;10.256;2023-03-11T14:36:10;13.50;55.10
12329;DHT22;6230;52.390;10.256;2023-03-11T14:38:41;13.00;54.70
12329;DHT22;6230;52.390;10.256;2023-03-11T14:41:12;12.70;55.40
12329;DHT22;6230;52.390;10.256;2023-03-11T14:43:42;12.40;55.70
12329;DHT22;6230;52.390;10.256;2023-03-11T14:46:17;12.20;55.80
12329;DHT22;6230;52.390;10.256;2023-03-11T14:48:45;11.90;55.70
12329;DHT22;6230;52.390;10.256;2023-03-11T14:51:25;11.70;55.70
12329;DHT22;6230;52.390;10.256;2023-03-11T14:59:50;11.10;56.20
12329;DHT22;6230;52.390;10.256;2023-03-11T15:02:43;11.00;56.10
12329;DHT22;6230;52.390;10.256;2023-03-11T15:05:22;10.80;56.00
12329;DHT22;6230;52.390;10.256;2023-03-11T15:07:56;10.70;56.30
12329;DHT22;6230;52.390;10.256;2023-03-11T15:10:24;10.60;56.20
12329;DHT22;6230;52.390;10.256;2023-03-11T15:12:50;10.50;56.30
12329;DHT22;6230;52.390;10.256;2023-03-11T15:15:25;10.50;56.50
12329;DHT22;6230;52.390;10.256;2023-03-11T15:17:52;10.40;56.40
12329;DHT22;6230;52.390;10.256;2023-03-11T15:20:32;10.40;56.50
12329;DHT22;6230;52.390;10.256;2023-03-11T15:23:02;10.30;56.50
12329;DHT22;6230;52.390;10.256;2023-03-11T15:25:33;10.30;56.40
12329;DHT22;6230;52.390;10.256;2023-03-11T15:28:20;10.20;56.30
12329;DHT22;6230;52.390;10.256;2023-03-11T15:30:46;10.10;56.20
12329;DHT22;6230;52.390;10.256;2023-03-11T15:33:32;10.00;56.40
12329;DHT22;6230;52.390;10.256;2023-03-11T15:35:57;10.00;56.40
12329;DHT22;6230;52.390;10.256;2023-03-11T15:38:24;10.00;56.50
12329;DHT22;6230;52.390;10.256;2023-03-11T15:40:52;9.90;56.40
12329;DHT22;6230;52.390;10.256;2023-03-11T15:43:26;9.90;56.40
12329;DHT22;6230;52.390;10.256;2023-03-11T15:45:53;9.80;56.30
12329;DHT22;6230;52.390;10.256;2023-03-11T15:48:21;9.80;56.40
12329;DHT22;6230;52.390;10.256;2023-03-11T15:50:51;9.80;56.40
12329;DHT22;6230;52.390;10.256;2023-03-11T15:53:18;9.80;56.50
12329;DHT22;6230;52.390;10.256;2023-03-11T15:55:45;9.80;56.40
12329;DHT22;6230;52.390;10.256;2023-03-11T15:58:15;9.80;56.40
12329;DHT22;6230;52.390;10.256;2023-03-11T16:00:50;9.70;56.20
12329;DHT22;6230;52.390;10.256;2023-03-11T16:03:17;9.60;56.20
12329;DHT22;6230;52.390;10.256;2023-03-11T16:05:43;9.60;56.20
12329;DHT22;6230;52.390;10.256;2023-03-11T16:08:08;9.50;56.10
12329;DHT22;6230;52.390;10.256;2023-03-11T16:10:34;9.50;56.20
12329;DHT22;6230;52.390;10.256;2023-03-11T16:13:00;9.50;56.20
12329;DHT22;6230;52.390;10.256;2023-03-11T16:15:28;9.40;56.10
12329;DHT22;6230;52.390;10.256;2023-03-11T16:17:56;9.40;56.10
12329;DHT22;6230;52.390;10.256;2023-03-11T16:20:23;9.40;56.30
12329;DHT22;6230;52.390;10.256;2023-03-11T16:22:52;9.40;56.30
12329;DHT22;6230;52.390;10.256;2023-03-11T16:25:33;9.30;56.20
12329;DHT22;6230;52.390;10.256;2023-03-11T16:28:00;9.30;56.00
12329;DHT22;6230;52.390;10.256;2023-03-11T16:30:28;9.20;56.00
12329;DHT22;6230;52.390;10.256;2023-03-11T16:32:54;9.10;56.00
12329;DHT22;6230;52.390;10.256;2023-03-11T16:35:20;9.10;56.10
12329;DHT22;6230;52.390;10.256;2023-03-11T16:37:45;9.00;56.20
12329;DHT22;6230;52.390;10.256;2023-03-11T16:40:21;9.00;56.20
12329;DHT22;6230;52.390;10.256;2023-03-11T16:42:47;8.90;56.10
12329;DHT22;6230;52.390;10.256;2023-03-11T16:45:14;8.90;56.30
12329;DHT22;6230;52.390;10.256;2023-03-11T16:47:40;8.80;56.20
12329;DHT22;6230;52.390;10.256;2023-03-11T16:50:07;8.80;56.40
12329;DHT22;6230;52.390;10.256;2023-03-11T16:52:32;8.80;56.40
12329;DHT22;6230;52.390;10.256;2023-03-11T16:54:58;8.70;56.30
12329;DHT22;6230;52.390;10.256;2023-03-11T16:57:24;8.70;56.30
12329;DHT22;6230;52.390;10.256;2023-03-11T16:59:49;8.60;56.30
12329;DHT22;6230;52.390;10.256;2023-03-11T17:02:16;8.60;56.40
12329;DHT22;6230;52.390;10.256;2023-03-11T17:04:41;8.50;56.40
12329;DHT22;6230;52.390;10.256;2023-03-11T17:07:07;8.50;56.50
12329;DHT22;6230;52.390;10.256;2023-03-11T17:09:34;8.40;56.50
12329;DHT22;6230;52.390;10.256;2023-03-11T17:12:00;8.40;56.50
12329;DHT22;6230;52.390;10.256;2023-03-11T17:14:26;8.30;56.60
12329;DHT22;6230;52.390;10.256;2023-03-11T17:16:52;8.30;56.60
12329;DHT22;6230;52.390;10.256;2023-03-11T17:19:18;8.20;56.60